Observations for LEVALDIGI, Italy (LIMZ)

LIMZ 260500Z 23004KT 6000 FEW040 17/16 Q1020
LIMZ 251850Z VRB01KT CAVOK 22/19 Q1018  
LIMZ 251750Z 33003KT CAVOK 26/17 Q1018  
LIMZ 251650Z VRB01KT CAVOK 28/17 Q1018  
LIMZ 251550Z VRB02KT CAVOK 28/17 Q1018  
LIMZ 251450Z VRB02KT 9999 FEW020 28/18 Q1018
LIMZ 251350Z 07004KT 9999 FEW020 28/19 Q1018
LIMZ 251250Z VRB02KT CAVOK 27/18 Q1019  
LIMZ 251150Z VRB02KT CAVOK 27/19 Q1020  
LIMZ 251050Z VRB03KT CAVOK 26/20 Q1020  
LIMZ 250950Z 36003KT CAVOK 24/19 Q1020  
LIMZ 250850Z 35004KT CAVOK 23/19 Q1020  
LIMZ 250750Z 34006KT 300V040 CAVOK 22/18 Q1020  
LIMZ 250650Z 29003KT CAVOK 20/18 Q1020  
LIMZ 250550Z 25005KT 9999 SCT040 17/17 Q1020
LIMZ 250500Z 25005KT 9999 SCT040 17/16 Q1019